sensor_id;sensor_type;location;lat;lon;timestamp;P1;durP1;ratioP1;P2;durP2;ratioP2
5125;SDS011;63008;53.112;8.896;2022-11-20T00:01:52;20.15;;;13.43;;
5125;SDS011;63008;53.112;8.896;2022-11-20T00:03:54;20.13;;;13.50;;
5125;SDS011;63008;53.112;8.896;2022-11-20T00:06:03;18.20;;;13.57;;
5125;SDS011;63008;53.112;8.896;2022-11-20T00:08:05;17.43;;;13.03;;
5125;SDS011;63008;53.112;8.896;2022-11-20T00:10:06;20.43;;;13.13;;
5125;SDS011;63008;53.112;8.896;2022-11-20T00:12:08;18.70;;;13.10;;
5125;SDS011;63008;53.112;8.896;2022-11-20T00:14:12;20.03;;;13.80;;
5125;SDS011;63008;53.112;8.896;2022-11-20T00:16:14;16.47;;;12.10;;
5125;SDS011;63008;53.112;8.896;2022-11-20T00:18:16;20.20;;;13.93;;
5125;SDS011;63008;53.112;8.896;2022-11-20T00:20:17;20.43;;;13.03;;
5125;SDS011;63008;53.112;8.896;2022-11-20T00:22:18;19.53;;;12.53;;
5125;SDS011;63008;53.112;8.896;2022-11-20T00:24:20;22.00;;;13.50;;
5125;SDS011;63008;53.112;8.896;2022-11-20T00:26:21;20.93;;;13.57;;
5125;SDS011;63008;53.112;8.896;2022-11-20T00:28:23;19.77;;;12.73;;
5125;SDS011;63008;53.112;8.896;2022-11-20T00:30:24;18.00;;;11.73;;
5125;SDS011;63008;53.112;8.896;2022-11-20T00:32:25;18.10;;;12.57;;
5125;SDS011;63008;53.112;8.896;2022-11-20T00:34:26;16.97;;;12.93;;
5125;SDS011;63008;53.112;8.896;2022-11-20T00:36:27;17.07;;;12.47;;
5125;SDS011;63008;53.112;8.896;2022-11-20T00:38:30;15.60;;;12.57;;
5125;SDS011;63008;53.112;8.896;2022-11-20T00:40:34;19.70;;;12.60;;
5125;SDS011;63008;53.112;8.896;2022-11-20T00:42:35;20.50;;;12.77;;
5125;SDS011;63008;53.112;8.896;2022-11-20T00:44:36;18.00;;;12.30;;
5125;SDS011;63008;53.112;8.896;2022-11-20T00:46:37;18.50;;;13.10;;
5125;SDS011;63008;53.112;8.896;2022-11-20T00:48:38;22.10;;;13.40;;
5125;SDS011;63008;53.112;8.896;2022-11-20T00:50:39;17.87;;;12.77;;
5125;SDS011;63008;53.112;8.896;2022-11-20T00:52:41;19.80;;;12.30;;
5125;SDS011;63008;53.112;8.896;2022-11-20T00:54:42;17.97;;;13.00;;
5125;SDS011;63008;53.112;8.896;2022-11-20T00:56:43;18.23;;;12.90;;
5125;SDS011;63008;53.112;8.896;2022-11-20T00:58:45;19.40;;;12.87;;
5125;SDS011;63008;53.112;8.896;2022-11-20T01:00:48;22.27;;;13.20;;
5125;SDS011;63008;53.112;8.896;2022-11-20T01:02:50;17.37;;;12.87;;
5125;SDS011;63008;53.112;8.896;2022-11-20T01:04:51;18.40;;;12.93;;
5125;SDS011;63008;53.112;8.896;2022-11-20T01:06:52;19.70;;;13.10;;
5125;SDS011;63008;53.112;8.896;2022-11-20T01:08:54;17.60;;;12.67;;
5125;SDS011;63008;53.112;8.896;2022-11-20T01:11:01;19.43;;;12.33;;
5125;SDS011;63008;53.112;8.896;2022-11-20T01:13:02;19.50;;;13.93;;
5125;SDS011;63008;53.112;8.896;2022-11-20T01:15:22;17.40;;;12.30;;
5125;SDS011;63008;53.112;8.896;2022-11-20T01:17:23;21.90;;;12.70;;
5125;SDS011;63008;53.112;8.896;2022-11-20T01:19:24;20.73;;;13.50;;
5125;SDS011;63008;53.112;8.896;2022-11-20T01:21:27;20.17;;;13.10;;
5125;SDS011;63008;53.112;8.896;2022-11-20T01:23:33;18.70;;;13.43;;
5125;SDS011;63008;53.112;8.896;2022-11-20T01:25:36;21.93;;;12.70;;
5125;SDS011;63008;53.112;8.896;2022-11-20T01:27:37;20.00;;;12.87;;
5125;SDS011;63008;53.112;8.896;2022-11-20T01:29:38;18.90;;;14.30;;
5125;SDS011;63008;53.112;8.896;2022-11-20T01:31:39;22.77;;;13.60;;
5125;SDS011;63008;53.112;8.896;2022-11-20T01:33:40;22.37;;;13.20;;
5125;SDS011;63008;53.112;8.896;2022-11-20T01:35:41;18.07;;;13.73;;
5125;SDS011;63008;53.112;8.896;2022-11-20T01:37:42;21.73;;;13.10;;
5125;SDS011;63008;53.112;8.896;2022-11-20T01:39:43;19.60;;;13.07;;
5125;SDS011;63008;53.112;8.896;2022-11-20T01:41:44;14.80;;;11.70;;
5125;SDS011;63008;53.112;8.896;2022-11-20T01:44:05;16.07;;;12.40;;
5125;SDS011;63008;53.112;8.896;2022-11-20T01:46:14;17.70;;;12.60;;
5125;SDS011;63008;53.112;8.896;2022-11-20T01:48:18;17.17;;;12.53;;
5125;SDS011;63008;53.112;8.896;2022-11-20T01:50:23;19.07;;;13.20;;
5125;SDS011;63008;53.112;8.896;2022-11-20T01:52:29;17.47;;;11.90;;
5125;SDS011;63008;53.112;8.896;2022-11-20T01:54:47;22.17;;;12.80;;
5125;SDS011;63008;53.112;8.896;2022-11-20T01:56:53;17.10;;;12.53;;
5125;SDS011;63008;53.112;8.896;2022-11-20T01:58:58;15.27;;;11.23;;
5125;SDS011;63008;53.112;8.896;2022-11-20T02:01:02;16.87;;;12.60;;
5125;SDS011;63008;53.112;8.896;2022-11-20T02:03:10;18.60;;;12.27;;
5125;SDS011;63008;53.112;8.896;2022-11-20T02:05:32;20.70;;;13.40;;
5125;SDS011;63008;53.112;8.896;2022-11-20T02:07:37;19.73;;;14.13;;
5125;SDS011;63008;53.112;8.896;2022-11-20T02:09:38;21.67;;;13.40;;
5125;SDS011;63008;53.112;8.896;2022-11-20T02:11:39;22.60;;;13.90;;
5125;SDS011;63008;53.112;8.896;2022-11-20T02:13:40;19.13;;;12.87;;
5125;SDS011;63008;53.112;8.896;2022-11-20T02:15:46;18.83;;;12.83;;
5125;SDS011;63008;53.112;8.896;2022-11-20T02:17:48;18.20;;;12.33;;
5125;SDS011;63008;53.112;8.896;2022-11-20T02:19:49;19.40;;;13.47;;
5125;SDS011;63008;53.112;8.896;2022-11-20T02:23:59;17.40;;;13.27;;
5125;SDS011;63008;53.112;8.896;2022-11-20T02:26:03;21.60;;;14.50;;
5125;SDS011;63008;53.112;8.896;2022-11-20T02:28:08;21.77;;;13.00;;
5125;SDS011;63008;53.112;8.896;2022-11-20T02:30:10;18.37;;;13.20;;
5125;SDS011;63008;53.112;8.896;2022-11-20T02:32:19;17.33;;;12.70;;
5125;SDS011;63008;53.112;8.896;2022-11-20T02:34:21;20.13;;;13.03;;
5125;SDS011;63008;53.112;8.896;2022-11-20T02:36:22;18.23;;;13.47;;
5125;SDS011;63008;53.112;8.896;2022-11-20T02:38:26;20.47;;;13.07;;
5125;SDS011;63008;53.112;8.896;2022-11-20T02:40:27;18.33;;;12.73;;
5125;SDS011;63008;53.112;8.896;2022-11-20T02:42:29;18.60;;;12.40;;
5125;SDS011;63008;53.112;8.896;2022-11-20T02:44:30;22.30;;;13.27;;
5125;SDS011;63008;53.112;8.896;2022-11-20T02:46:31;18.67;;;12.10;;
5125;SDS011;63008;53.112;8.896;2022-11-20T02:48:33;18.90;;;12.60;;
5125;SDS011;63008;53.112;8.896;2022-11-20T02:50:37;19.10;;;12.60;;
5125;SDS011;63008;53.112;8.896;2022-11-20T02:52:40;21.93;;;15.50;;
5125;SDS011;63008;53.112;8.896;2022-11-20T02:54:41;20.50;;;13.90;;
5125;SDS011;63008;53.112;8.896;2022-11-20T02:56:42;18.90;;;12.13;;
5125;SDS011;63008;53.112;8.896;2022-11-20T02:58:44;18.90;;;12.83;;
5125;SDS011;63008;53.112;8.896;2022-11-20T03:00:45;20.10;;;13.47;;
5125;SDS011;63008;53.112;8.896;2022-11-20T03:02:45;22.67;;;12.77;;
5125;SDS011;63008;53.112;8.896;2022-11-20T03:04:46;15.00;;;11.80;;
5125;SDS011;63008;53.112;8.896;2022-11-20T03:06:47;18.53;;;12.93;;
5125;SDS011;63008;53.112;8.896;2022-11-20T03:08:48;22.07;;;13.90;;
5125;SDS011;63008;53.112;8.896;2022-11-20T03:10:49;25.47;;;13.77;;
5125;SDS011;63008;53.112;8.896;2022-11-20T03:12:54;31.53;;;14.73;;
5125;SDS011;63008;53.112;8.896;2022-11-20T03:14:58;23.83;;;14.50;;
5125;SDS011;63008;53.112;8.896;2022-11-20T03:16:59;23.30;;;14.50;;
5125;SDS011;63008;53.112;8.896;2022-11-20T03:19:00;22.97;;;13.60;;
5125;SDS011;63008;53.112;8.896;2022-11-20T03:21:01;24.73;;;14.27;;
5125;SDS011;63008;53.112;8.896;2022-11-20T03:23:02;16.37;;;11.80;;
5125;SDS011;63008;53.112;8.896;2022-11-20T03:25:03;22.80;;;13.10;;
5125;SDS011;63008;53.112;8.896;2022-11-20T03:27:05;21.57;;;13.00;;
5125;SDS011;63008;53.112;8.896;2022-11-20T03:29:06;17.47;;;12.13;;
5125;SDS011;63008;53.112;8.896;2022-11-20T03:31:08;21.20;;;13.03;;
5125;SDS011;63008;53.112;8.896;2022-11-20T03:33:11;17.87;;;12.17;;
5125;SDS011;63008;53.112;8.896;2022-11-20T03:35:12;22.23;;;13.07;;
5125;SDS011;63008;53.112;8.896;2022-11-20T03:37:13;25.33;;;13.57;;
5125;SDS011;63008;53.112;8.896;2022-11-20T03:39:14;21.33;;;12.50;;
5125;SDS011;63008;53.112;8.896;2022-11-20T03:41:21;19.03;;;12.27;;
5125;SDS011;63008;53.112;8.896;2022-11-20T03:43:24;21.23;;;12.87;;
5125;SDS011;63008;53.112;8.896;2022-11-20T03:45:25;23.60;;;12.93;;
5125;SDS011;63008;53.112;8.896;2022-11-20T03:47:26;22.00;;;13.63;;
5125;SDS011;63008;53.112;8.896;2022-11-20T03:49:27;20.20;;;11.83;;
5125;SDS011;63008;53.112;8.896;2022-11-20T03:51:31;23.70;;;13.33;;
5125;SDS011;63008;53.112;8.896;2022-11-20T03:53:33;19.97;;;12.43;;
5125;SDS011;63008;53.112;8.896;2022-11-20T03:55:35;19.23;;;12.10;;
5125;SDS011;63008;53.112;8.896;2022-11-20T03:57:36;19.27;;;12.57;;
5125;SDS011;63008;53.112;8.896;2022-11-20T03:59:37;20.10;;;12.23;;
5125;SDS011;63008;53.112;8.896;2022-11-20T04:01:38;22.70;;;13.30;;
5125;SDS011;63008;53.112;8.896;2022-11-20T04:03:39;24.80;;;13.47;;
5125;SDS011;63008;53.112;8.896;2022-11-20T04:05:41;22.47;;;13.67;;
5125;SDS011;63008;53.112;8.896;2022-11-20T04:07:42;28.63;;;15.10;;
5125;SDS011;63008;53.112;8.896;2022-11-20T04:09:43;21.23;;;13.83;;
5125;SDS011;63008;53.112;8.896;2022-11-20T04:11:44;22.97;;;14.17;;
5125;SDS011;63008;53.112;8.896;2022-11-20T04:13:46;26.57;;;13.27;;
5125;SDS011;63008;53.112;8.896;2022-11-20T04:15:49;20.57;;;12.07;;
5125;SDS011;63008;53.112;8.896;2022-11-20T04:17:50;19.80;;;13.23;;
5125;SDS011;63008;53.112;8.896;2022-11-20T04:19:51;27.77;;;14.80;;
5125;SDS011;63008;53.112;8.896;2022-11-20T04:21:52;24.30;;;13.30;;
5125;SDS011;63008;53.112;8.896;2022-11-20T04:23:53;20.50;;;13.27;;
5125;SDS011;63008;53.112;8.896;2022-11-20T04:25:55;22.83;;;14.03;;
5125;SDS011;63008;53.112;8.896;2022-11-20T04:28:02;21.93;;;13.97;;
5125;SDS011;63008;53.112;8.896;2022-11-20T04:30:03;21.00;;;12.20;;
5125;SDS011;63008;53.112;8.896;2022-11-20T04:32:04;18.93;;;13.00;;
5125;SDS011;63008;53.112;8.896;2022-11-20T04:34:06;15.90;;;11.87;;
5125;SDS011;63008;53.112;8.896;2022-11-20T04:36:10;15.20;;;10.60;;
5125;SDS011;63008;53.112;8.896;2022-11-20T04:38:12;15.60;;;10.80;;
5125;SDS011;63008;53.112;8.896;2022-11-20T04:40:13;17.20;;;10.67;;
5125;SDS011;63008;53.112;8.896;2022-11-20T04:42:14;16.80;;;9.87;;
5125;SDS011;63008;53.112;8.896;2022-11-20T04:44:30;14.70;;;9.60;;
5125;SDS011;63008;53.112;8.896;2022-11-20T04:46:35;17.13;;;10.10;;
5125;SDS011;63008;53.112;8.896;2022-11-20T04:48:37;15.17;;;10.27;;
5125;SDS011;63008;53.112;8.896;2022-11-20T04:50:39;14.37;;;9.20;;
5125;SDS011;63008;53.112;8.896;2022-11-20T04:52:41;14.00;;;9.00;;
5125;SDS011;63008;53.112;8.896;2022-11-20T04:54:42;15.10;;;8.80;;
5125;SDS011;63008;53.112;8.896;2022-11-20T04:56:43;14.00;;;9.20;;
5125;SDS011;63008;53.112;8.896;2022-11-20T04:58:44;15.90;;;9.90;;
5125;SDS011;63008;53.112;8.896;2022-11-20T05:00:45;12.17;;;9.23;;
5125;SDS011;63008;53.112;8.896;2022-11-20T05:02:46;13.10;;;9.03;;
5125;SDS011;63008;53.112;8.896;2022-11-20T05:04:47;10.97;;;7.83;;
5125;SDS011;63008;53.112;8.896;2022-11-20T05:06:49;14.97;;;8.20;;
5125;SDS011;63008;53.112;8.896;2022-11-20T05:08:50;14.23;;;8.53;;
5125;SDS011;63008;53.112;8.896;2022-11-20T05:10:51;14.70;;;8.53;;
5125;SDS011;63008;53.112;8.896;2022-11-20T05:12:52;11.70;;;8.57;;
5125;SDS011;63008;53.112;8.896;2022-11-20T05:14:53;12.53;;;7.90;;
5125;SDS011;63008;53.112;8.896;2022-11-20T05:16:54;10.87;;;7.43;;
5125;SDS011;63008;53.112;8.896;2022-11-20T05:18:55;10.27;;;7.80;;
5125;SDS011;63008;53.112;8.896;2022-11-20T05:20:57;13.00;;;8.80;;
5125;SDS011;63008;53.112;8.896;2022-11-20T05:22:59;13.63;;;8.73;;
5125;SDS011;63008;53.112;8.896;2022-11-20T05:25:00;11.13;;;7.63;;
5125;SDS011;63008;53.112;8.896;2022-11-20T05:27:00;13.60;;;8.43;;
5125;SDS011;63008;53.112;8.896;2022-11-20T05:29:01;11.30;;;8.20;;
5125;SDS011;63008;53.112;8.896;2022-11-20T05:33:14;12.90;;;8.57;;
5125;SDS011;63008;53.112;8.896;2022-11-20T05:35:15;13.13;;;8.10;;
5125;SDS011;63008;53.112;8.896;2022-11-20T05:37:16;10.83;;;8.10;;
5125;SDS011;63008;53.112;8.896;2022-11-20T05:39:17;14.73;;;8.23;;
5125;SDS011;63008;53.112;8.896;2022-11-20T05:41:19;9.90;;;7.63;;
5125;SDS011;63008;53.112;8.896;2022-11-20T05:43:21;11.40;;;7.90;;
5125;SDS011;63008;53.112;8.896;2022-11-20T05:45:22;10.13;;;7.23;;
5125;SDS011;63008;53.112;8.896;2022-11-20T05:47:23;13.90;;;8.10;;
5125;SDS011;63008;53.112;8.896;2022-11-20T05:49:24;11.00;;;8.00;;
5125;SDS011;63008;53.112;8.896;2022-11-20T05:51:25;13.53;;;8.40;;
5125;SDS011;63008;53.112;8.896;2022-11-20T05:53:27;11.70;;;7.50;;
5125;SDS011;63008;53.112;8.896;2022-11-20T05:55:28;15.57;;;8.87;;
5125;SDS011;63008;53.112;8.896;2022-11-20T05:57:30;10.83;;;7.23;;
5125;SDS011;63008;53.112;8.896;2022-11-20T05:59:31;15.60;;;9.07;;
5125;SDS011;63008;53.112;8.896;2022-11-20T06:01:32;13.07;;;8.10;;
5125;SDS011;63008;53.112;8.896;2022-11-20T06:03:33;15.47;;;9.43;;
5125;SDS011;63008;53.112;8.896;2022-11-20T06:05:35;10.67;;;7.80;;
5125;SDS011;63008;53.112;8.896;2022-11-20T06:07:36;13.40;;;8.50;;
5125;SDS011;63008;53.112;8.896;2022-11-20T06:09:37;18.53;;;11.83;;
5125;SDS011;63008;53.112;8.896;2022-11-20T06:11:38;12.87;;;7.37;;
5125;SDS011;63008;53.112;8.896;2022-11-20T06:13:39;11.47;;;8.00;;
5125;SDS011;63008;53.112;8.896;2022-11-20T06:15:40;11.90;;;9.10;;
5125;SDS011;63008;53.112;8.896;2022-11-20T06:17:41;15.70;;;9.73;;
5125;SDS011;63008;53.112;8.896;2022-11-20T06:19:42;15.90;;;8.60;;
5125;SDS011;63008;53.112;8.896;2022-11-20T06:21:43;14.63;;;8.50;;
5125;SDS011;63008;53.112;8.896;2022-11-20T06:23:44;14.40;;;9.20;;
5125;SDS011;63008;53.112;8.896;2022-11-20T06:25:45;9.67;;;7.97;;
5125;SDS011;63008;53.112;8.896;2022-11-20T06:27:46;11.20;;;7.50;;
5125;SDS011;63008;53.112;8.896;2022-11-20T06:29:47;12.50;;;8.27;;
5125;SDS011;63008;53.112;8.896;2022-11-20T06:31:48;11.47;;;8.20;;
5125;SDS011;63008;53.112;8.896;2022-11-20T06:33:49;10.13;;;8.23;;
5125;SDS011;63008;53.112;8.896;2022-11-20T06:35:51;12.50;;;8.47;;
5125;SDS011;63008;53.112;8.896;2022-11-20T06:37:52;10.47;;;8.40;;
5125;SDS011;63008;53.112;8.896;2022-11-20T06:39:53;15.40;;;9.23;;
5125;SDS011;63008;53.112;8.896;2022-11-20T06:41:54;11.97;;;8.93;;
5125;SDS011;63008;53.112;8.896;2022-11-20T06:43:55;14.33;;;9.77;;
5125;SDS011;63008;53.112;8.896;2022-11-20T06:45:57;12.00;;;8.50;;
5125;SDS011;63008;53.112;8.896;2022-11-20T06:47:59;12.03;;;8.43;;
5125;SDS011;63008;53.112;8.896;2022-11-20T06:50:00;14.60;;;8.67;;
5125;SDS011;63008;53.112;8.896;2022-11-20T06:52:01;16.83;;;10.23;;
5125;SDS011;63008;53.112;8.896;2022-11-20T06:54:02;14.27;;;10.17;;
5125;SDS011;63008;53.112;8.896;2022-11-20T06:56:03;13.13;;;9.20;;
5125;SDS011;63008;53.112;8.896;2022-11-20T06:58:05;11.23;;;8.60;;
5125;SDS011;63008;53.112;8.896;2022-11-20T07:00:06;14.00;;;9.00;;
5125;SDS011;63008;53.112;8.896;2022-11-20T07:02:11;12.00;;;8.33;;
5125;SDS011;63008;53.112;8.896;2022-11-20T07:04:12;13.37;;;9.43;;
5125;SDS011;63008;53.112;8.896;2022-11-20T07:06:13;11.43;;;8.40;;
5125;SDS011;63008;53.112;8.896;2022-11-20T07:08:14;15.53;;;8.43;;
5125;SDS011;63008;53.112;8.896;2022-11-20T07:10:15;10.50;;;7.77;;
5125;SDS011;63008;53.112;8.896;2022-11-20T07:12:16;15.03;;;8.90;;
5125;SDS011;63008;53.112;8.896;2022-11-20T07:14:17;11.90;;;8.67;;
5125;SDS011;63008;53.112;8.896;2022-11-20T07:16:18;17.00;;;10.87;;
5125;SDS011;63008;53.112;8.896;2022-11-20T07:18:19;18.57;;;12.87;;
5125;SDS011;63008;53.112;8.896;2022-11-20T07:20:20;14.33;;;10.17;;
5125;SDS011;63008;53.112;8.896;2022-11-20T07:22:21;12.10;;;7.87;;
5125;SDS011;63008;53.112;8.896;2022-11-20T07:24:22;15.23;;;12.60;;
5125;SDS011;63008;53.112;8.896;2022-11-20T07:26:23;28.60;;;20.20;;
5125;SDS011;63008;53.112;8.896;2022-11-20T07:28:24;15.90;;;10.80;;
5125;SDS011;63008;53.112;8.896;2022-11-20T07:30:28;10.57;;;8.77;;
5125;SDS011;63008;53.112;8.896;2022-11-20T07:32:30;10.40;;;7.93;;
5125;SDS011;63008;53.112;8.896;2022-11-20T07:34:31;10.67;;;8.17;;
5125;SDS011;63008;53.112;8.896;2022-11-20T07:36:32;11.30;;;8.20;;
5125;SDS011;63008;53.112;8.896;2022-11-20T07:38:33;11.77;;;7.07;;
5125;SDS011;63008;53.112;8.896;2022-11-20T07:40:34;10.50;;;8.10;;
5125;SDS011;63008;53.112;8.896;2022-11-20T07:42:35;12.63;;;8.60;;
5125;SDS011;63008;53.112;8.896;2022-11-20T07:44:36;10.33;;;8.00;;
5125;SDS011;63008;53.112;8.896;2022-11-20T07:46:37;11.30;;;8.23;;
5125;SDS011;63008;53.112;8.896;2022-11-20T07:48:38;14.53;;;9.73;;
5125;SDS011;63008;53.112;8.896;2022-11-20T07:50:40;12.90;;;8.57;;
5125;SDS011;63008;53.112;8.896;2022-11-20T07:52:41;10.67;;;8.60;;
5125;SDS011;63008;53.112;8.896;2022-11-20T07:54:42;10.47;;;7.97;;
5125;SDS011;63008;53.112;8.896;2022-11-20T07:56:43;17.53;;;8.90;;
5125;SDS011;63008;53.112;8.896;2022-11-20T07:58:44;11.13;;;8.60;;
5125;SDS011;63008;53.112;8.896;2022-11-20T08:00:44;12.60;;;7.80;;
5125;SDS011;63008;53.112;8.896;2022-11-20T08:02:45;12.70;;;8.20;;
5125;SDS011;63008;53.112;8.896;2022-11-20T08:04:47;12.47;;;9.37;;
5125;SDS011;63008;53.112;8.896;2022-11-20T08:06:48;10.87;;;8.30;;
5125;SDS011;63008;53.112;8.896;2022-11-20T08:08:50;11.80;;;8.67;;
5125;SDS011;63008;53.112;8.896;2022-11-20T08:10:51;11.57;;;8.30;;
5125;SDS011;63008;53.112;8.896;2022-11-20T08:12:52;12.00;;;8.17;;
5125;SDS011;63008;53.112;8.896;2022-11-20T08:15:11;11.77;;;8.37;;
5125;SDS011;63008;53.112;8.896;2022-11-20T08:17:12;11.40;;;8.23;;
5125;SDS011;63008;53.112;8.896;2022-11-20T08:19:14;11.03;;;7.67;;
5125;SDS011;63008;53.112;8.896;2022-11-20T08:21:16;11.00;;;7.27;;
5125;SDS011;63008;53.112;8.896;2022-11-20T08:23:17;9.23;;;7.87;;
5125;SDS011;63008;53.112;8.896;2022-11-20T08:25:18;10.63;;;7.77;;
5125;SDS011;63008;53.112;8.896;2022-11-20T08:27:19;18.70;;;11.63;;
5125;SDS011;63008;53.112;8.896;2022-11-20T08:29:20;11.87;;;8.90;;
5125;SDS011;63008;53.112;8.896;2022-11-20T08:31:21;11.10;;;7.67;;
5125;SDS011;63008;53.112;8.896;2022-11-20T08:33:23;12.20;;;8.17;;
5125;SDS011;63008;53.112;8.896;2022-11-20T08:35:24;10.00;;;8.00;;
5125;SDS011;63008;53.112;8.896;2022-11-20T08:37:25;10.77;;;7.77;;
5125;SDS011;63008;53.112;8.896;2022-11-20T08:39:25;13.00;;;7.70;;
5125;SDS011;63008;53.112;8.896;2022-11-20T08:41:26;9.50;;;7.57;;
5125;SDS011;63008;53.112;8.896;2022-11-20T08:43:27;11.67;;;7.53;;
5125;SDS011;63008;53.112;8.896;2022-11-20T08:45:28;13.30;;;7.77;;
5125;SDS011;63008;53.112;8.896;2022-11-20T08:47:29;8.73;;;7.37;;
5125;SDS011;63008;53.112;8.896;2022-11-20T08:49:30;11.37;;;7.70;;
5125;SDS011;63008;53.112;8.896;2022-11-20T08:51:31;11.00;;;8.13;;
5125;SDS011;63008;53.112;8.896;2022-11-20T08:53:32;10.77;;;8.20;;
5125;SDS011;63008;53.112;8.896;2022-11-20T08:55:33;7.83;;;7.03;;
5125;SDS011;63008;53.112;8.896;2022-11-20T08:57:37;9.80;;;7.70;;
5125;SDS011;63008;53.112;8.896;2022-11-20T08:59:40;13.23;;;8.00;;
5125;SDS011;63008;53.112;8.896;2022-11-20T09:01:41;11.97;;;8.70;;
5125;SDS011;63008;53.112;8.896;2022-11-20T09:03:42;16.73;;;9.07;;
5125;SDS011;63008;53.112;8.896;2022-11-20T09:05:43;16.13;;;10.73;;
5125;SDS011;63008;53.112;8.896;2022-11-20T09:07:44;13.13;;;8.40;;
5125;SDS011;63008;53.112;8.896;2022-11-20T09:09:45;12.00;;;8.60;;
5125;SDS011;63008;53.112;8.896;2022-11-20T09:11:46;13.33;;;9.07;;
5125;SDS011;63008;53.112;8.896;2022-11-20T09:13:47;12.13;;;8.90;;
5125;SDS011;63008;53.112;8.896;2022-11-20T09:15:55;10.70;;;8.33;;
5125;SDS011;63008;53.112;8.896;2022-11-20T09:18:01;12.03;;;8.57;;
5125;SDS011;63008;53.112;8.896;2022-11-20T09:20:03;13.93;;;9.10;;
5125;SDS011;63008;53.112;8.896;2022-11-20T09:22:04;11.83;;;8.90;;
5125;SDS011;63008;53.112;8.896;2022-11-20T09:24:05;13.60;;;8.90;;
5125;SDS011;63008;53.112;8.896;2022-11-20T09:26:08;11.07;;;9.00;;
5125;SDS011;63008;53.112;8.896;2022-11-20T09:28:13;13.67;;;9.33;;
5125;SDS011;63008;53.112;8.896;2022-11-20T09:30:14;11.37;;;8.90;;
5125;SDS011;63008;53.112;8.896;2022-11-20T09:32:16;13.57;;;9.70;;
5125;SDS011;63008;53.112;8.896;2022-11-20T09:34:17;11.80;;;9.50;;
5125;SDS011;63008;53.112;8.896;2022-11-20T09:36:18;12.90;;;9.60;;
5125;SDS011;63008;53.112;8.896;2022-11-20T09:38:19;18.07;;;10.10;;
5125;SDS011;63008;53.112;8.896;2022-11-20T09:40:24;14.50;;;9.27;;
5125;SDS011;63008;53.112;8.896;2022-11-20T09:42:38;16.23;;;9.30;;
5125;SDS011;63008;53.112;8.896;2022-11-20T09:44:50;15.40;;;10.73;;
5125;SDS011;63008;53.112;8.896;2022-11-20T09:47:04;14.90;;;11.00;;
5125;SDS011;63008;53.112;8.896;2022-11-20T09:51:53;18.63;;;10.60;;
5125;SDS011;63008;53.112;8.896;2022-11-20T09:56:17;16.60;;;10.93;;
5125;SDS011;63008;53.112;8.896;2022-11-20T10:00:35;22.13;;;10.33;;
5125;SDS011;63008;53.112;8.896;2022-11-20T10:02:45;25.03;;;11.30;;
5125;SDS011;63008;53.112;8.896;2022-11-20T10:07:08;22.60;;;10.00;;
5125;SDS011;63008;53.112;8.896;2022-11-20T10:09:18;18.43;;;11.60;;
5125;SDS011;63008;53.112;8.896;2022-11-20T10:18:37;18.73;;;11.37;;
5125;SDS011;63008;53.112;8.896;2022-11-20T10:21:09;16.17;;;10.90;;
5125;SDS011;63008;53.112;8.896;2022-11-20T10:25:51;18.10;;;11.30;;
5125;SDS011;63008;53.112;8.896;2022-11-20T10:30:08;19.50;;;11.70;;
5125;SDS011;63008;53.112;8.896;2022-11-20T10:32:14;15.83;;;11.20;;
5125;SDS011;63008;53.112;8.896;2022-11-20T10:34:20;17.50;;;12.50;;
5125;SDS011;63008;53.112;8.896;2022-11-20T10:36:28;25.40;;;11.93;;
5125;SDS011;63008;53.112;8.896;2022-11-20T10:38:38;21.23;;;12.67;;
5125;SDS011;63008;53.112;8.896;2022-11-20T10:40:48;20.80;;;13.13;;
5125;SDS011;63008;53.112;8.896;2022-11-20T10:42:55;23.43;;;12.87;;
5125;SDS011;63008;53.112;8.896;2022-11-20T10:47:30;20.93;;;13.53;;
5125;SDS011;63008;53.112;8.896;2022-11-20T10:49:32;26.67;;;14.60;;
5125;SDS011;63008;53.112;8.896;2022-11-20T10:51:36;22.30;;;14.33;;
5125;SDS011;63008;53.112;8.896;2022-11-20T10:56:21;24.57;;;15.57;;
5125;SDS011;63008;53.112;8.896;2022-11-20T10:58:35;25.43;;;14.27;;
5125;SDS011;63008;53.112;8.896;2022-11-20T11:00:46;26.40;;;16.03;;
5125;SDS011;63008;53.112;8.896;2022-11-20T11:02:48;28.43;;;15.80;;
5125;SDS011;63008;53.112;8.896;2022-11-20T11:04:50;29.63;;;15.53;;
5125;SDS011;63008;53.112;8.896;2022-11-20T11:06:52;30.10;;;18.60;;
5125;SDS011;63008;53.112;8.896;2022-11-20T11:09:00;32.83;;;20.67;;
5125;SDS011;63008;53.112;8.896;2022-11-20T11:11:18;38.57;;;26.60;;
5125;SDS011;63008;53.112;8.896;2022-11-20T11:13:25;36.80;;;26.03;;
5125;SDS011;63008;53.112;8.896;2022-11-20T11:15:36;30.73;;;19.80;;
5125;SDS011;63008;53.112;8.896;2022-11-20T11:17:45;26.17;;;16.67;;
5125;SDS011;63008;53.112;8.896;2022-11-20T11:22:21;23.33;;;14.73;;
5125;SDS011;63008;53.112;8.896;2022-11-20T11:24:26;25.80;;;14.57;;
5125;SDS011;63008;53.112;8.896;2022-11-20T11:26:28;24.50;;;14.13;;
5125;SDS011;63008;53.112;8.896;2022-11-20T11:28:30;18.73;;;13.67;;
5125;SDS011;63008;53.112;8.896;2022-11-20T11:30:42;21.13;;;12.70;;
5125;SDS011;63008;53.112;8.896;2022-11-20T11:32:44;18.17;;;12.30;;
5125;SDS011;63008;53.112;8.896;2022-11-20T11:34:58;18.17;;;12.13;;
5125;SDS011;63008;53.112;8.896;2022-11-20T11:37:03;16.90;;;11.83;;
5125;SDS011;63008;53.112;8.896;2022-11-20T11:39:06;25.00;;;10.90;;
5125;SDS011;63008;53.112;8.896;2022-11-20T11:41:13;16.47;;;11.10;;
5125;SDS011;63008;53.112;8.896;2022-11-20T11:43:20;17.03;;;10.67;;
5125;SDS011;63008;53.112;8.896;2022-11-20T11:45:50;14.93;;;11.07;;
5125;SDS011;63008;53.112;8.896;2022-11-20T11:47:53;24.97;;;10.60;;
5125;SDS011;63008;53.112;8.896;2022-11-20T11:50:14;13.90;;;10.13;;
5125;SDS011;63008;53.112;8.896;2022-11-20T11:52:18;10.73;;;9.63;;
5125;SDS011;63008;53.112;8.896;2022-11-20T11:54:26;13.23;;;9.87;;
5125;SDS011;63008;53.112;8.896;2022-11-20T11:56:33;13.37;;;10.93;;
5125;SDS011;63008;53.112;8.896;2022-11-20T11:58:44;16.03;;;10.80;;
5125;SDS011;63008;53.112;8.896;2022-11-20T12:00:51;14.13;;;10.20;;
5125;SDS011;63008;53.112;8.896;2022-11-20T12:03:02;13.80;;;10.47;;
5125;SDS011;63008;53.112;8.896;2022-11-20T14:27:23;13.83;;;9.87;;
5125;SDS011;63008;53.112;8.896;2022-11-20T14:29:28;12.60;;;9.07;;
5125;SDS011;63008;53.112;8.896;2022-11-20T14:31:33;13.07;;;8.97;;
5125;SDS011;63008;53.112;8.896;2022-11-20T14:33:34;11.00;;;7.80;;
5125;SDS011;63008;53.112;8.896;2022-11-20T14:35:40;15.10;;;9.37;;
5125;SDS011;63008;53.112;8.896;2022-11-20T14:37:46;14.13;;;9.60;;
5125;SDS011;63008;53.112;8.896;2022-11-20T14:39:49;13.10;;;9.07;;
5125;SDS011;63008;53.112;8.896;2022-11-20T14:41:52;13.87;;;9.77;;
5125;SDS011;63008;53.112;8.896;2022-11-20T14:43:56;13.73;;;9.40;;
5125;SDS011;63008;53.112;8.896;2022-11-20T14:45:59;15.30;;;9.70;;
5125;SDS011;63008;53.112;8.896;2022-11-20T14:48:05;13.90;;;8.77;;
5125;SDS011;63008;53.112;8.896;2022-11-20T14:50:12;11.67;;;8.50;;
5125;SDS011;63008;53.112;8.896;2022-11-20T14:52:18;15.90;;;10.37;;
5125;SDS011;63008;53.112;8.896;2022-11-20T14:54:20;14.77;;;10.20;;
5125;SDS011;63008;53.112;8.896;2022-11-20T14:56:26;16.93;;;10.27;;
5125;SDS011;63008;53.112;8.896;2022-11-20T14:58:28;13.57;;;9.97;;
5125;SDS011;63008;53.112;8.896;2022-11-20T15:00:32;14.10;;;9.93;;
5125;SDS011;63008;53.112;8.896;2022-11-20T15:02:38;24.63;;;10.83;;
5125;SDS011;63008;53.112;8.896;2022-11-20T15:04:46;16.37;;;10.30;;
5125;SDS011;63008;53.112;8.896;2022-11-20T15:06:52;13.53;;;10.00;;
5125;SDS011;63008;53.112;8.896;2022-11-20T15:08:54;15.53;;;10.90;;
5125;SDS011;63008;53.112;8.896;2022-11-20T15:10:55;19.47;;;11.53;;
5125;SDS011;63008;53.112;8.896;2022-11-20T15:13:01;19.00;;;11.00;;